createdAt,value
2019-01-17T00:00:04.239Z,0.00
2019-01-17T00:01:10.313Z,0.00
2019-01-17T00:02:16.395Z,0.00
2019-01-17T00:03:22.956Z,0.00
2019-01-17T00:04:28.569Z,0.00
2019-01-17T00:05:35.117Z,0.00
2019-01-17T00:06:40.698Z,0.00
2019-01-17T00:07:47.277Z,0.00
2019-01-17T00:08:52.860Z,0.00
2019-01-17T00:09:58.948Z,0.00
2019-01-17T00:11:05.011Z,0.00
2019-01-17T00:12:11.094Z,0.00
2019-01-17T00:13:17.162Z,0.00
2019-01-17T00:14:23.766Z,0.00
2019-01-17T00:15:29.830Z,0.00
2019-01-17T00:16:35.411Z,0.00
2019-01-17T00:17:41.619Z,0.00
2019-01-17T00:18:48.067Z,0.00
2019-01-17T00:19:53.657Z,0.00
2019-01-17T00:20:59.741Z,0.00
2019-01-17T00:22:05.813Z,0.00
2019-01-17T00:23:11.891Z,0.00
2019-01-17T00:24:18.459Z,0.00
2019-01-17T00:25:25.068Z,0.00
2019-01-17T00:26:30.149Z,0.00
2019-01-17T00:27:36.237Z,0.00
2019-01-17T00:28:42.300Z,0.00
2019-01-17T00:29:48.890Z,0.00
2019-01-17T00:30:54.484Z,0.00
2019-01-17T00:32:01.065Z,0.00
2019-01-17T00:33:06.655Z,0.00
2019-01-17T00:34:13.240Z,0.00
2019-01-17T00:35:18.831Z,0.00
2019-01-17T00:36:24.937Z,0.00
2019-01-17T00:37:31.642Z,0.00
2019-01-17T00:38:37.603Z,0.00
2019-01-17T00:39:43.186Z,0.00
2019-01-17T00:40:49.786Z,0.00
2019-01-17T00:41:55.865Z,0.00
2019-01-17T00:43:01.952Z,0.00
2019-01-17T00:44:08.039Z,0.00
2019-01-17T00:45:13.639Z,0.00
2019-01-17T00:46:20.234Z,0.00
2019-01-17T00:47:26.025Z,0.00
2019-01-17T00:48:32.402Z,0.00
2019-01-17T00:49:38.008Z,0.00
2019-01-17T00:50:44.087Z,0.00
2019-01-17T00:51:50.684Z,0.00
2019-01-17T00:52:56.768Z,0.00
2019-01-17T00:54:02.372Z,0.00
2019-01-17T00:55:08.968Z,0.00
2019-01-17T00:56:15.053Z,0.00
2019-01-17T00:57:21.159Z,0.00
2019-01-17T00:58:26.752Z,0.00
2019-01-17T00:59:33.337Z,0.00
2019-01-17T01:00:38.953Z,0.00
2019-01-17T01:01:45.049Z,0.00
2019-01-17T01:02:51.641Z,0.00
2019-01-17T01:03:57.248Z,0.00
2019-01-17T01:05:03.358Z,0.00
2019-01-17T01:06:09.952Z,0.00
2019-01-17T01:07:16.045Z,0.00
2019-01-17T01:08:22.159Z,0.00
2019-01-17T01:09:27.762Z,0.00
2019-01-17T01:10:34.370Z,0.00
2019-01-17T01:11:39.961Z,0.00
2019-01-17T01:12:46.060Z,0.00
2019-01-17T01:13:52.156Z,0.00
2019-01-17T01:14:58.256Z,0.00
2019-01-17T01:16:05.835Z,0.00
2019-01-17T01:17:10.446Z,0.00
2019-01-17T01:18:16.543Z,0.00
2019-01-17T01:19:23.136Z,0.00
2019-01-17T01:20:29.238Z,0.00
2019-01-17T01:21:34.836Z,0.00
2019-01-17T01:22:40.932Z,0.00
2019-01-17T01:23:47.604Z,0.00
2019-01-17T01:24:53.127Z,0.00
2019-01-17T01:25:59.218Z,0.00
2019-01-17T01:27:05.818Z,0.00
2019-01-17T01:28:11.908Z,0.00
2019-01-17T01:29:18.006Z,0.00
2019-01-17T01:30:25.092Z,0.00
2019-01-17T01:31:30.208Z,0.00
2019-01-17T01:32:36.291Z,0.00
2019-01-17T01:33:41.891Z,0.00
2019-01-17T01:44:09.656Z,0.00
2019-01-17T01:45:15.744Z,0.00
2019-01-17T01:46:21.851Z,0.00
2019-01-17T01:47:27.955Z,0.00
2019-01-17T01:48:34.061Z,0.00
2019-01-17T01:49:40.627Z,0.00
2019-01-17T01:50:46.755Z,0.00
2019-01-17T01:51:52.855Z,0.00
2019-01-17T01:52:58.955Z,0.00
2019-01-17T01:54:05.056Z,0.00
2019-01-17T01:55:11.154Z,0.00
2019-01-17T01:56:16.765Z,0.00
2019-01-17T01:57:23.371Z,0.00
2019-01-17T01:58:28.974Z,0.00
2019-01-17T01:59:35.604Z,0.00
2019-01-17T02:00:42.878Z,0.00
2019-01-17T02:01:47.795Z,0.00
2019-01-17T02:12:15.172Z,0.00
2019-01-17T02:22:43.040Z,0.00
2019-01-17T02:23:49.146Z,0.00
2019-01-17T02:34:17.509Z,0.00
2019-01-17T02:35:23.629Z,0.00
2019-01-17T02:45:51.054Z,0.00
2019-01-17T02:46:57.159Z,0.00
2019-01-17T02:48:03.287Z,0.00
2019-01-17T02:58:31.743Z,0.00
2019-01-17T03:08:59.155Z,0.00
2019-01-17T03:19:27.030Z,0.00
2019-01-17T03:29:55.370Z,0.00
2019-01-17T03:40:22.677Z,0.00
2019-01-17T03:41:29.269Z,0.00
2019-01-17T03:51:57.059Z,0.00
2019-01-17T04:02:24.796Z,0.00
2019-01-17T04:12:52.048Z,0.00
2019-01-17T04:23:20.276Z,0.00
2019-01-17T04:33:48.011Z,0.00
2019-01-17T04:44:15.266Z,0.00
2019-01-17T04:54:43.011Z,0.00
2019-01-17T05:05:10.732Z,0.00
2019-01-17T05:15:38.474Z,0.00
2019-01-17T05:26:06.174Z,0.00
2019-01-17T05:36:33.876Z,0.00
2019-01-17T05:47:02.078Z,0.00
2019-01-17T05:57:29.799Z,0.00
2019-01-17T06:07:57.496Z,0.00
2019-01-17T06:18:24.668Z,0.00
2019-01-17T06:28:52.386Z,0.00
2019-01-17T06:39:20.593Z,0.00
2019-01-17T06:49:48.302Z,4.00
2019-01-17T07:00:15.530Z,12.00
2019-01-17T07:10:43.746Z,72.00
2019-01-17T07:21:11.460Z,176.00
2019-01-17T07:31:39.175Z,408.00
2019-01-17T07:42:06.898Z,1548.00
2019-01-17T07:52:34.653Z,2704.00
2019-01-17T07:53:40.762Z,2736.00
2019-01-17T07:54:46.382Z,2680.00
2019-01-17T07:55:52.609Z,2664.00
2019-01-17T07:56:59.052Z,2580.00
2019-01-17T07:58:05.179Z,2400.00
2019-01-17T07:59:11.300Z,2272.00
2019-01-17T08:00:16.891Z,2188.00
2019-01-17T08:01:23.959Z,2212.00
2019-01-17T08:11:51.372Z,2408.00
2019-01-17T08:22:19.259Z,2648.00
2019-01-17T08:23:25.367Z,2504.00
2019-01-17T08:24:31.480Z,2268.00
2019-01-17T08:25:37.095Z,1976.00
2019-01-17T08:26:43.194Z,1680.00
2019-01-17T08:37:11.103Z,2220.00
2019-01-17T08:38:17.197Z,2216.00
2019-01-17T08:39:23.302Z,2244.00
2019-01-17T08:49:51.204Z,2872.00
2019-01-17T08:50:57.314Z,2604.00
2019-01-17T08:52:03.925Z,2688.00
2019-01-17T08:53:09.541Z,2644.00
2019-01-17T08:54:16.148Z,2624.00
2019-01-17T09:04:43.559Z,3508.00
2019-01-17T09:05:49.682Z,3796.00
2019-01-17T09:06:55.788Z,3628.00
2019-01-17T09:17:23.744Z,4776.00
2019-01-17T09:18:29.856Z,5684.00
2019-01-17T09:19:36.610Z,5840.00
2019-01-17T09:20:43.459Z,6276.00
2019-01-17T09:21:48.726Z,6432.00
2019-01-17T09:22:54.846Z,6240.00
2019-01-17T09:24:00.989Z,7272.00
2019-01-17T09:25:07.129Z,8168.00
2019-01-17T09:26:12.768Z,8244.00
2019-01-17T09:27:19.408Z,8536.00
2019-01-17T09:28:25.562Z,7632.00
2019-01-17T09:29:31.706Z,8064.00
2019-01-17T09:30:37.359Z,7284.00
2019-01-17T09:31:43.503Z,7812.00
2019-01-17T09:32:49.655Z,8416.00
2019-01-17T09:33:55.808Z,7780.00
2019-01-17T09:35:02.604Z,6484.00
2019-01-17T09:36:08.115Z,5136.00
2019-01-17T09:37:14.257Z,4408.00
2019-01-17T09:38:20.925Z,3876.00
2019-01-17T09:39:26.566Z,3956.00
2019-01-17T09:40:33.225Z,3988.00
2019-01-17T09:41:38.854Z,4132.00
2019-01-17T09:42:45.481Z,4416.00
2019-01-17T09:43:51.126Z,4784.00
2019-01-17T09:44:57.260Z,5220.00
2019-01-17T09:46:03.408Z,5440.00
2019-01-17T09:47:10.038Z,5376.00
2019-01-17T09:48:16.171Z,5132.00
2019-01-17T09:49:22.301Z,4804.00
2019-01-17T09:50:27.944Z,4496.00
2019-01-17T09:51:34.617Z,4304.00
2019-01-17T09:52:40.706Z,4124.00
2019-01-17T09:53:46.366Z,4088.00
2019-01-17T09:54:52.984Z,3836.00
2019-01-17T09:55:59.129Z,3648.00
2019-01-17T09:57:04.757Z,3500.00
2019-01-17T09:58:11.388Z,3588.00
2019-01-17T09:59:17.511Z,3736.00
2019-01-17T10:00:23.660Z,3964.00
2019-01-17T10:01:29.784Z,4248.00
2019-01-17T10:02:35.908Z,4440.00
2019-01-17T10:03:41.558Z,4520.00
2019-01-17T10:04:48.179Z,4516.00
2019-01-17T10:05:53.817Z,4860.00
2019-01-17T10:06:59.975Z,4992.00
2019-01-17T10:08:06.094Z,6404.00
2019-01-17T10:09:12.241Z,6656.00
2019-01-17T10:10:18.378Z,5760.00
2019-01-17T10:11:24.508Z,7788.00
2019-01-17T10:12:30.658Z,7384.00
2019-01-17T10:13:38.287Z,8580.00
2019-01-17T10:14:42.952Z,7620.00
2019-01-17T10:15:49.087Z,6744.00
2019-01-17T10:16:55.243Z,6856.00
2019-01-17T10:18:01.896Z,5192.00
2019-01-17T10:19:08.048Z,5092.00
2019-01-17T10:20:13.705Z,5532.00
2019-01-17T10:21:20.347Z,6336.00
2019-01-17T10:22:25.997Z,7716.00
2019-01-17T10:23:32.158Z,8112.00
2019-01-17T10:24:38.327Z,5792.00
2019-01-17T10:25:44.953Z,4552.00
2019-01-17T10:26:51.111Z,4300.00
2019-01-17T10:27:56.754Z,4600.00
2019-01-17T10:29:03.406Z,4368.00
2019-01-17T10:30:09.103Z,4708.00
2019-01-17T10:31:15.700Z,4708.00
2019-01-17T10:32:21.360Z,4268.00
2019-01-17T10:33:27.598Z,4392.00
2019-01-17T10:34:33.641Z,5312.00
2019-01-17T10:35:40.268Z,5036.00
2019-01-17T10:36:45.916Z,5324.00
2019-01-17T10:37:52.633Z,5032.00
2019-01-17T10:38:58.704Z,5192.00
2019-01-17T10:40:04.844Z,5240.00
2019-01-17T10:41:10.985Z,5760.00
2019-01-17T10:42:16.636Z,7152.00
2019-01-17T10:43:23.605Z,7336.00
2019-01-17T10:44:29.414Z,7320.00
2019-01-17T10:45:35.576Z,6136.00
2019-01-17T10:46:41.708Z,6240.00
2019-01-17T10:47:47.367Z,7132.00
2019-01-17T10:48:54.284Z,6412.00
2019-01-17T10:49:59.688Z,5260.00
2019-01-17T10:51:05.849Z,5252.00
2019-01-17T10:52:12.613Z,4760.00
2019-01-17T10:53:18.651Z,4384.00
2019-01-17T10:54:24.305Z,3912.00
2019-01-17T10:55:30.480Z,4388.00
2019-01-17T10:56:41.609Z,4384.00
2019-01-17T10:57:42.756Z,4388.00
2019-01-17T10:58:49.396Z,4396.00
2019-01-17T10:59:55.076Z,4404.00
2019-01-17T11:01:01.702Z,4448.00
2019-01-17T11:02:07.867Z,4572.00
2019-01-17T11:03:13.528Z,4648.00
2019-01-17T11:04:20.160Z,5232.00
2019-01-17T11:05:26.332Z,8308.00
2019-01-17T11:06:31.990Z,12764.00
2019-01-17T11:07:38.145Z,11632.00
2019-01-17T11:08:44.315Z,9836.00
2019-01-17T11:09:51.022Z,10536.00
2019-01-17T11:10:57.157Z,10964.00
2019-01-17T11:12:02.845Z,11356.00
2019-01-17T11:13:09.024Z,11340.00
2019-01-17T11:14:15.706Z,11156.00
2019-01-17T11:15:21.634Z,9140.00
2019-01-17T11:16:28.119Z,9288.00
2019-01-17T11:17:34.287Z,8372.00
2019-01-17T11:18:39.981Z,7836.00
2019-01-17T11:19:46.681Z,6756.00
2019-01-17T11:20:52.884Z,7220.00
2019-01-17T11:21:59.067Z,6088.00
2019-01-17T11:23:05.239Z,4928.00
2019-01-17T11:24:11.437Z,4716.00
2019-01-17T11:25:17.132Z,4728.00
2019-01-17T11:26:23.319Z,4776.00
2019-01-17T11:27:29.497Z,4752.00
2019-01-17T11:28:35.674Z,4768.00
2019-01-17T11:29:42.338Z,4812.00
2019-01-17T11:30:48.603Z,4848.00
2019-01-17T11:31:54.221Z,4992.00
2019-01-17T11:33:00.390Z,5828.00
2019-01-17T11:34:06.566Z,9576.00
2019-01-17T11:35:13.246Z,12016.00
2019-01-17T11:36:18.942Z,15444.00
2019-01-17T11:37:25.630Z,13360.00
2019-01-17T11:38:31.331Z,12240.00
2019-01-17T11:39:37.545Z,13176.00
2019-01-17T11:40:44.249Z,11360.00
2019-01-17T11:41:51.456Z,10552.00
2019-01-17T11:42:56.675Z,12780.00
2019-01-17T11:44:02.401Z,12084.00
2019-01-17T11:45:08.618Z,12172.00
2019-01-17T11:46:15.321Z,9600.00
2019-01-17T11:47:21.577Z,10408.00
2019-01-17T11:48:27.307Z,8388.00
2019-01-17T11:49:33.995Z,7252.00
2019-01-17T11:50:40.212Z,6848.00
2019-01-17T11:51:46.447Z,9640.00
2019-01-17T11:52:52.150Z,8884.00
2019-01-17T11:53:58.363Z,9012.00
2019-01-17T11:55:04.582Z,8724.00
2019-01-17T11:56:10.789Z,17504.00
2019-01-17T11:57:18.616Z,30208.00
2019-01-17T11:58:23.724Z,10304.00
2019-01-17T11:59:29.451Z,17760.00
2019-01-17T12:00:36.170Z,12016.00
2019-01-17T12:01:42.383Z,21952.00
2019-01-17T12:02:48.608Z,27456.00
2019-01-17T12:03:54.844Z,20928.00
2019-01-17T12:05:02.092Z,35584.00
2019-01-17T12:06:06.870Z,9484.00
2019-01-17T12:07:13.583Z,16808.00
2019-01-17T12:08:19.328Z,47392.00
2019-01-17T12:09:25.550Z,44704.00
2019-01-17T12:10:31.825Z,47968.00
2019-01-17T12:11:38.592Z,49792.00
2019-01-17T12:12:44.384Z,14696.00
2019-01-17T12:13:51.177Z,12588.00
2019-01-17T12:14:56.984Z,13952.00
2019-01-17T12:16:03.272Z,14828.00
2019-01-17T12:17:09.572Z,13324.00
2019-01-17T12:18:16.351Z,12872.00
2019-01-17T12:19:22.638Z,11448.00
2019-01-17T12:20:28.459Z,12540.00
2019-01-17T12:21:35.214Z,11952.00
2019-01-17T12:22:40.980Z,12316.00
2019-01-17T12:23:47.246Z,12748.00
2019-01-17T12:24:54.004Z,12336.00
2019-01-17T12:26:00.293Z,12448.00
2019-01-17T12:27:06.605Z,11092.00
2019-01-17T12:28:12.322Z,10288.00
2019-01-17T12:29:18.564Z,9652.00
2019-01-17T12:30:25.346Z,11156.00
2019-01-17T12:31:31.063Z,10680.00
2019-01-17T12:32:37.827Z,10556.00
2019-01-17T12:33:44.056Z,9460.00
2019-01-17T12:34:49.815Z,10808.00
2019-01-17T12:35:56.557Z,10228.00
2019-01-17T12:37:02.278Z,7568.00
2019-01-17T12:38:08.530Z,7264.00
2019-01-17T12:39:15.256Z,10280.00
2019-01-17T12:40:21.612Z,10812.00
2019-01-17T12:41:27.233Z,9408.00
2019-01-17T12:42:33.943Z,9032.00
2019-01-17T12:43:40.152Z,9760.00
2019-01-17T12:44:45.920Z,10428.00
2019-01-17T12:45:52.653Z,14708.00
2019-01-17T12:46:58.398Z,17536.00
2019-01-17T12:48:05.115Z,17920.00
2019-01-17T12:49:11.359Z,12816.00
2019-01-17T12:50:17.101Z,9224.00
2019-01-17T12:51:23.360Z,7416.00
2019-01-17T12:52:30.030Z,6456.00
2019-01-17T12:53:36.315Z,8092.00
2019-01-17T12:54:42.505Z,7684.00
2019-01-17T12:55:48.753Z,6248.00
2019-01-17T12:56:54.974Z,4720.00
2019-01-17T12:58:00.692Z,4924.00
2019-01-17T12:59:06.902Z,5452.00
2019-01-17T13:00:13.608Z,4132.00
2019-01-17T13:01:19.333Z,3716.00
2019-01-17T13:02:25.997Z,3968.00
2019-01-17T13:03:31.718Z,3420.00
2019-01-17T13:04:37.914Z,2432.00
2019-01-17T13:05:44.608Z,2836.00
2019-01-17T13:06:50.783Z,3656.00
2019-01-17T13:07:56.513Z,5560.00
2019-01-17T13:09:03.168Z,9116.00
2019-01-17T13:10:09.358Z,8996.00
2019-01-17T13:11:15.042Z,12532.00
2019-01-17T13:12:21.739Z,22560.00
2019-01-17T13:13:27.920Z,8252.00
2019-01-17T13:14:35.127Z,8012.00
2019-01-17T13:15:39.845Z,5572.00
2019-01-17T13:16:46.535Z,4684.00
2019-01-17T13:17:52.729Z,4144.00
2019-01-17T13:18:58.935Z,4244.00
2019-01-17T13:20:04.644Z,5384.00
2019-01-17T13:21:10.824Z,5528.00
2019-01-17T13:22:17.604Z,5476.00
2019-01-17T13:23:23.691Z,5376.00
2019-01-17T13:24:29.378Z,5468.00
2019-01-17T13:25:35.553Z,6064.00
2019-01-17T13:26:41.729Z,6524.00
2019-01-17T13:27:47.934Z,6488.00
2019-01-17T13:28:54.604Z,5004.00
2019-01-17T13:30:00.776Z,6708.00
2019-01-17T13:31:06.957Z,6768.00
2019-01-17T13:32:12.623Z,7092.00
2019-01-17T13:33:20.953Z,8656.00
2019-01-17T13:34:25.609Z,9056.00
2019-01-17T13:35:31.653Z,7564.00
2019-01-17T13:36:40.526Z,7196.00
2019-01-17T13:37:43.506Z,6976.00
2019-01-17T13:38:50.151Z,6028.00
2019-01-17T13:39:56.324Z,5876.00
2019-01-17T13:41:02.478Z,7280.00
2019-01-17T13:42:08.653Z,7724.00
2019-01-17T13:43:14.316Z,6568.00
2019-01-17T13:44:20.626Z,6544.00
2019-01-17T13:45:26.659Z,6792.00
2019-01-17T13:46:33.771Z,6904.00
2019-01-17T13:47:39.630Z,7144.00
2019-01-17T13:48:45.643Z,7232.00
2019-01-17T13:49:51.317Z,7636.00
2019-01-17T13:50:57.491Z,6928.00
2019-01-17T13:52:03.660Z,6156.00
2019-01-17T13:53:09.825Z,7180.00
2019-01-17T13:54:15.991Z,8172.00
2019-01-17T13:55:22.159Z,13772.00
2019-01-17T13:56:28.837Z,13084.00
2019-01-17T13:57:34.509Z,11860.00
2019-01-17T13:58:41.203Z,13572.00
2019-01-17T13:59:46.890Z,14076.00
2019-01-17T14:00:53.095Z,10064.00
2019-01-17T14:01:59.314Z,9776.00
2019-01-17T14:03:05.521Z,12352.00
2019-01-17T14:04:12.300Z,15132.00
2019-01-17T14:05:18.474Z,11100.00
2019-01-17T14:06:24.245Z,15744.00
2019-01-17T14:07:30.448Z,10636.00
2019-01-17T14:08:37.180Z,7828.00
2019-01-17T14:09:43.432Z,5580.00
2019-01-17T14:10:49.166Z,4444.00
2019-01-17T14:11:55.409Z,3812.00
2019-01-17T14:13:02.129Z,3756.00
2019-01-17T14:14:07.884Z,3688.00
2019-01-17T14:15:14.076Z,3992.00
2019-01-17T14:16:20.786Z,4676.00
2019-01-17T14:17:26.486Z,4048.00
2019-01-17T14:18:32.692Z,3572.00
2019-01-17T14:19:38.913Z,4064.00
2019-01-17T14:20:45.110Z,4900.00
2019-01-17T14:21:51.801Z,5932.00
2019-01-17T14:22:57.989Z,6368.00
2019-01-17T14:24:04.204Z,5732.00
2019-01-17T14:25:10.391Z,4068.00
2019-01-17T14:26:16.097Z,3192.00
2019-01-17T14:27:23.767Z,2028.00
2019-01-17T14:28:28.469Z,1396.00
2019-01-17T14:29:35.167Z,1036.00
2019-01-17T14:30:41.840Z,804.00
2019-01-17T14:31:47.604Z,676.00
2019-01-17T14:32:53.678Z,504.00
2019-01-17T14:33:59.840Z,744.00
2019-01-17T14:35:06.013Z,936.00
2019-01-17T14:36:11.668Z,892.00
2019-01-17T14:37:18.309Z,656.00
2019-01-17T14:38:23.958Z,500.00
2019-01-17T14:39:30.622Z,436.00
2019-01-17T14:40:36.712Z,444.00
2019-01-17T14:41:42.831Z,456.00
2019-01-17T14:42:48.457Z,464.00
2019-01-17T14:43:54.591Z,520.00
2019-01-17T14:45:01.205Z,548.00
2019-01-17T14:46:07.310Z,588.00
2019-01-17T14:47:13.415Z,660.00
2019-01-17T14:48:19.608Z,640.00
2019-01-17T14:49:25.630Z,828.00
2019-01-17T14:50:31.745Z,1200.00
2019-01-17T14:51:37.549Z,1628.00
2019-01-17T14:52:43.442Z,1440.00
2019-01-17T14:53:50.037Z,1288.00
2019-01-17T14:54:56.167Z,1248.00
2019-01-17T14:56:02.282Z,1244.00
2019-01-17T14:57:08.335Z,1344.00
2019-01-17T14:58:15.023Z,1492.00
2019-01-17T14:59:20.607Z,1820.00
2019-01-17T15:00:26.652Z,2312.00
2019-01-17T15:01:32.742Z,2728.00
2019-01-17T15:02:38.875Z,2840.00
2019-01-17T15:03:44.921Z,2624.00
2019-01-17T15:04:50.520Z,2312.00
2019-01-17T15:05:57.149Z,2088.00
2019-01-17T15:07:02.704Z,2016.00
2019-01-17T15:08:09.304Z,2012.00
2019-01-17T15:09:15.395Z,2044.00
2019-01-17T15:10:21.609Z,2096.00
2019-01-17T15:11:27.566Z,2128.00
2019-01-17T15:12:34.669Z,2072.00
2019-01-17T15:13:39.742Z,1968.00
2019-01-17T15:14:45.840Z,1828.00
2019-01-17T15:15:51.410Z,1700.00
2019-01-17T15:16:58.075Z,1604.00
2019-01-17T15:18:04.061Z,1668.00
2019-01-17T15:19:12.822Z,1780.00
2019-01-17T15:20:16.329Z,1900.00
2019-01-17T15:21:22.321Z,2080.00
2019-01-17T15:22:28.397Z,1988.00
2019-01-17T15:23:34.477Z,1816.00
2019-01-17T15:24:40.592Z,1808.00
2019-01-17T15:25:46.655Z,1788.00
2019-01-17T15:26:52.711Z,1788.00
2019-01-17T15:27:58.796Z,1760.00
2019-01-17T15:29:04.881Z,1656.00
2019-01-17T15:30:10.961Z,1540.00
2019-01-17T15:31:16.543Z,1392.00
2019-01-17T15:32:24.127Z,1304.00
2019-01-17T15:33:29.196Z,1288.00
2019-01-17T15:34:35.291Z,1184.00
2019-01-17T15:35:41.353Z,1080.00
2019-01-17T15:36:47.430Z,1008.00
2019-01-17T15:37:53.603Z,960.00
2019-01-17T15:38:59.610Z,896.00
2019-01-17T15:40:05.638Z,856.00
2019-01-17T15:41:11.728Z,816.00
2019-01-17T15:42:17.796Z,760.00
2019-01-17T15:43:23.847Z,708.00
2019-01-17T15:44:29.919Z,672.00
2019-01-17T15:45:35.616Z,632.00
2019-01-17T15:46:42.088Z,588.00
2019-01-17T15:47:48.120Z,548.00
2019-01-17T15:48:54.677Z,508.00
2019-01-17T15:50:00.243Z,460.00
2019-01-17T15:51:06.327Z,416.00
2019-01-17T15:52:12.359Z,376.00
2019-01-17T15:53:18.479Z,344.00
2019-01-17T15:54:24.490Z,308.00
2019-01-17T15:55:30.592Z,280.00
2019-01-17T15:56:36.623Z,252.00
2019-01-17T15:57:42.710Z,224.00
2019-01-17T15:58:48.756Z,200.00
2019-01-17T15:59:54.781Z,180.00
2019-01-17T16:01:00.830Z,160.00
2019-01-17T16:02:06.895Z,148.00
2019-01-17T16:03:12.957Z,124.00
2019-01-17T16:04:19.009Z,112.00
2019-01-17T16:05:25.055Z,100.00
2019-01-17T16:06:31.334Z,84.00
2019-01-17T16:07:37.204Z,72.00
2019-01-17T16:08:43.261Z,64.00
2019-01-17T16:09:48.797Z,52.00
2019-01-17T16:10:55.352Z,44.00
2019-01-17T16:12:02.430Z,36.00
2019-01-17T16:13:07.485Z,32.00
2019-01-17T16:14:13.614Z,28.00
2019-01-17T16:15:19.610Z,20.00
2019-01-17T16:16:25.647Z,20.00
2019-01-17T16:17:31.689Z,16.00
2019-01-17T16:18:37.749Z,12.00
2019-01-17T16:19:43.804Z,12.00
2019-01-17T16:20:49.866Z,8.00
2019-01-17T16:21:55.969Z,8.00
2019-01-17T16:23:01.970Z,8.00
2019-01-17T16:24:08.033Z,8.00
2019-01-17T16:25:14.085Z,4.00
2019-01-17T16:26:20.137Z,4.00
2019-01-17T16:27:26.231Z,4.00
2019-01-17T16:28:32.254Z,4.00
2019-01-17T16:29:38.310Z,4.00
2019-01-17T16:30:44.368Z,0.00
2019-01-17T16:31:50.423Z,0.00
2019-01-17T16:32:56.467Z,0.00
2019-01-17T16:34:02.521Z,0.00
2019-01-17T16:35:08.571Z,0.00
2019-01-17T16:36:14.632Z,0.00
2019-01-17T16:37:20.694Z,0.00
2019-01-17T16:38:27.364Z,0.00
2019-01-17T16:39:32.797Z,0.00
2019-01-17T16:40:38.849Z,0.00
2019-01-17T16:41:44.409Z,0.00
2019-01-17T16:42:50.974Z,0.00
2019-01-17T16:43:57.020Z,0.00
2019-01-17T16:45:03.075Z,0.00
2019-01-17T16:46:09.116Z,0.00
2019-01-17T16:47:15.228Z,0.00
2019-01-17T16:48:21.213Z,0.00
2019-01-17T16:49:27.278Z,0.00
2019-01-17T16:50:33.341Z,0.00
2019-01-17T16:51:39.396Z,0.00
2019-01-17T16:52:45.474Z,0.00
2019-01-17T16:53:51.602Z,0.00
2019-01-17T16:54:57.072Z,0.00
2019-01-17T16:56:03.142Z,0.00
2019-01-17T16:57:09.710Z,0.00
2019-01-17T16:58:15.750Z,0.00
2019-01-17T16:59:21.803Z,0.00
2019-01-17T17:00:27.863Z,0.00
2019-01-17T17:01:33.914Z,0.00
2019-01-17T17:02:39.990Z,0.00
2019-01-17T17:03:46.037Z,0.00
2019-01-17T17:04:52.071Z,0.00
2019-01-17T17:05:58.141Z,0.00
2019-01-17T17:07:04.242Z,0.00
2019-01-17T17:08:10.249Z,0.00
2019-01-17T17:09:16.301Z,0.00
2019-01-17T17:10:22.342Z,0.00
2019-01-17T17:11:28.403Z,0.00
2019-01-17T17:12:34.462Z,0.00
2019-01-17T17:13:40.525Z,0.00
2019-01-17T17:14:46.608Z,0.00
2019-01-17T17:15:52.643Z,0.00
2019-01-17T17:16:58.688Z,0.00
2019-01-17T17:18:05.743Z,0.00
2019-01-17T17:19:10.802Z,0.00
2019-01-17T17:20:16.857Z,0.00
2019-01-17T17:21:22.910Z,0.00
2019-01-17T17:22:28.970Z,0.00
2019-01-17T17:23:35.041Z,0.00
2019-01-17T17:24:40.574Z,0.00
2019-01-17T17:25:46.643Z,0.00
2019-01-17T17:26:52.681Z,0.00
2019-01-17T17:27:59.242Z,0.00
2019-01-17T17:29:05.281Z,0.00
2019-01-17T17:30:11.325Z,0.00
2019-01-17T17:31:17.473Z,0.00
2019-01-17T17:32:23.425Z,0.00
2019-01-17T17:33:29.617Z,0.00
2019-01-17T17:34:35.525Z,0.00
2019-01-17T17:35:42.534Z,0.00
2019-01-17T17:36:47.621Z,0.00
2019-01-17T17:37:53.179Z,0.00
2019-01-17T17:38:59.708Z,0.00
2019-01-17T17:40:05.758Z,0.00
2019-01-17T17:41:11.841Z,0.00
2019-01-17T17:42:17.366Z,0.00
2019-01-17T17:44:29.983Z,0.00
2019-01-17T17:45:35.636Z,0.00
2019-01-17T17:46:42.369Z,0.00
2019-01-17T17:47:48.079Z,0.00
2019-01-17T17:48:54.145Z,0.00
2019-01-17T17:50:00.172Z,0.00
2019-01-17T17:51:06.231Z,0.00
2019-01-17T17:52:12.426Z,0.00
2019-01-17T17:53:18.319Z,0.00
2019-01-17T17:54:23.876Z,0.00
2019-01-17T17:55:30.423Z,0.00
2019-01-17T17:56:36.458Z,0.00
2019-01-17T17:57:42.514Z,0.00
2019-01-17T17:58:48.559Z,0.00
2019-01-17T17:59:55.607Z,0.00
2019-01-17T18:01:00.645Z,0.00
2019-01-17T18:02:06.693Z,0.00
2019-01-17T18:03:12.242Z,0.00
2019-01-17T18:04:18.784Z,0.00
2019-01-17T18:05:24.820Z,0.00
2019-01-17T18:06:31.235Z,0.00
2019-01-17T18:07:36.928Z,0.00
2019-01-17T18:08:42.445Z,0.00
2019-01-17T18:09:48.974Z,0.00
2019-01-17T18:10:55.021Z,0.00
2019-01-17T18:12:01.529Z,0.00
2019-01-17T18:13:06.661Z,0.00
2019-01-17T18:14:13.165Z,0.00
2019-01-17T18:15:19.588Z,0.00
2019-01-17T18:16:25.298Z,0.00
2019-01-17T18:17:31.283Z,0.00
2019-01-17T18:18:37.318Z,0.00
2019-01-17T18:19:43.380Z,0.00
2019-01-17T18:20:49.459Z,0.00
2019-01-17T18:21:56.439Z,0.00
2019-01-17T18:23:02.479Z,0.00
2019-01-17T18:24:07.525Z,0.00
2019-01-17T18:25:13.618Z,0.00
2019-01-17T18:26:19.651Z,0.00
2019-01-17T18:27:25.636Z,0.00
2019-01-17T18:28:31.776Z,0.00
2019-01-17T18:29:37.727Z,0.00
2019-01-17T18:30:43.749Z,0.00
2019-01-17T18:31:49.793Z,0.00
2019-01-17T18:32:55.824Z,0.00
2019-01-17T18:34:01.848Z,0.00
2019-01-17T18:35:07.886Z,0.00
2019-01-17T18:36:14.245Z,0.00
2019-01-17T18:37:19.470Z,0.00
2019-01-17T18:38:25.494Z,0.00
2019-01-17T18:39:32.041Z,0.00
2019-01-17T18:40:38.064Z,0.00
2019-01-17T18:41:44.074Z,0.00
2019-01-17T18:42:50.124Z,0.00
2019-01-17T18:43:56.151Z,0.00
2019-01-17T18:45:02.182Z,0.00
2019-01-17T18:46:08.219Z,0.00
2019-01-17T18:47:14.258Z,0.00
2019-01-17T18:48:19.763Z,0.00
2019-01-17T18:49:26.292Z,0.00
2019-01-17T18:50:33.325Z,0.00
2019-01-17T18:51:38.371Z,0.00
2019-01-17T18:52:44.435Z,0.00
2019-01-17T18:53:50.414Z,0.00
2019-01-17T18:54:55.942Z,0.00
2019-01-17T18:56:01.976Z,0.00
2019-01-17T18:57:08.497Z,0.00
2019-01-17T18:58:15.717Z,0.00
2019-01-17T18:59:20.610Z,0.00
2019-01-17T19:00:26.582Z,0.00
2019-01-17T19:01:32.632Z,0.00
2019-01-17T19:02:38.149Z,0.00
2019-01-17T19:03:44.657Z,0.00
2019-01-17T19:04:50.688Z,0.00
2019-01-17T19:05:56.724Z,0.00
2019-01-17T19:07:02.749Z,0.00
2019-01-17T19:08:08.790Z,0.00
2019-01-17T19:09:14.781Z,0.00
2019-01-17T19:10:20.875Z,0.00
2019-01-17T19:11:26.840Z,0.00
2019-01-17T19:12:32.889Z,0.00
2019-01-17T19:13:38.898Z,0.00
2019-01-17T19:14:44.905Z,0.00
2019-01-17T19:15:50.948Z,0.00
2019-01-17T19:16:56.471Z,0.00
2019-01-17T19:18:02.990Z,0.00
2019-01-17T19:19:09.004Z,0.00
2019-01-17T19:20:15.047Z,0.00
2019-01-17T19:21:21.069Z,0.00
2019-01-17T19:22:27.074Z,0.00
2019-01-17T19:23:33.116Z,0.00
2019-01-17T19:24:39.123Z,0.00
2019-01-17T19:25:45.266Z,0.00
2019-01-17T19:26:51.201Z,0.00
2019-01-17T19:27:57.200Z,0.00
2019-01-17T19:29:03.218Z,0.00
2019-01-17T19:30:09.263Z,0.00
2019-01-17T19:31:15.275Z,0.00
2019-01-17T19:32:21.286Z,0.00
2019-01-17T19:33:27.306Z,0.00
2019-01-17T19:34:33.343Z,0.00
2019-01-17T19:35:39.354Z,0.00
2019-01-17T19:36:45.392Z,0.00
2019-01-17T19:37:51.411Z,0.00
2019-01-17T19:38:57.426Z,0.00
2019-01-17T19:40:03.444Z,0.00
2019-01-17T19:41:09.484Z,0.00
2019-01-17T19:42:15.606Z,0.00
2019-01-17T19:43:21.616Z,0.00
2019-01-17T19:44:27.536Z,0.00
2019-01-17T19:45:33.632Z,0.00
2019-01-17T19:46:39.632Z,0.00
2019-01-17T19:47:45.593Z,0.00
2019-01-17T19:48:53.534Z,0.00
2019-01-17T19:49:57.640Z,0.00
2019-01-17T19:51:03.680Z,0.00
2019-01-17T19:52:09.700Z,0.00
2019-01-17T19:53:15.711Z,0.00
2019-01-17T19:54:21.760Z,0.00
2019-01-17T19:55:27.759Z,0.00
2019-01-17T19:56:33.346Z,0.00
2019-01-17T19:57:39.806Z,0.00
2019-01-17T19:58:45.775Z,0.00
2019-01-17T19:59:52.878Z,0.00
2019-01-17T20:00:57.890Z,0.00
2019-01-17T20:02:03.666Z,0.00
2019-01-17T20:03:09.898Z,0.00
2019-01-17T20:04:16.864Z,0.00
2019-01-17T20:05:21.974Z,0.00
2019-01-17T20:06:27.966Z,0.00
2019-01-17T20:07:33.984Z,0.00
2019-01-17T20:08:39.995Z,0.00
2019-01-17T20:09:47.027Z,0.00